createdAt,value
2023-04-18T00:01:47.250Z,9.13
2023-04-18T00:04:14.470Z,7.45
2023-04-18T00:06:41.798Z,12.20
2023-04-18T00:09:08.675Z,9.27
2023-04-18T00:11:35.472Z,10.70
2023-04-18T00:14:02.305Z,9.50
2023-04-18T00:16:29.443Z,9.20
2023-04-18T00:18:57.596Z,9.10
2023-04-18T00:21:24.397Z,12.63
2023-04-18T00:23:51.341Z,9.27
2023-04-18T00:26:18.220Z,9.40
2023-04-18T00:28:45.009Z,8.68
2023-04-18T00:31:11.993Z,9.18
2023-04-18T00:33:38.875Z,9.65
2023-04-18T00:36:08.019Z,9.35
2023-04-18T00:38:35.460Z,10.95
2023-04-18T00:41:02.242Z,9.52
2023-04-18T00:43:29.331Z,9.18
2023-04-18T00:45:56.226Z,10.23
2023-04-18T00:48:23.573Z,9.10
2023-04-18T00:50:50.371Z,9.70
2023-04-18T00:53:18.680Z,10.10
2023-04-18T00:55:45.668Z,9.18
2023-04-18T00:58:12.686Z,10.77
2023-04-18T01:00:39.839Z,10.20
2023-04-18T01:03:06.743Z,9.23
2023-04-18T01:05:33.700Z,10.25
2023-04-18T01:08:00.672Z,9.75
2023-04-18T01:10:30.401Z,11.90
2023-04-18T01:13:13.286Z,10.00
2023-04-18T01:15:41.193Z,9.63
2023-04-18T01:18:08.893Z,9.25
2023-04-18T01:20:36.468Z,10.48
2023-04-18T01:23:03.771Z,9.60
2023-04-18T01:25:32.356Z,12.02
2023-04-18T01:27:59.381Z,10.13
2023-04-18T01:30:26.298Z,10.10
2023-04-18T01:32:53.143Z,10.70
2023-04-18T01:35:20.112Z,9.20
2023-04-18T01:37:47.153Z,11.32
2023-04-18T01:40:14.289Z,10.63
2023-04-18T01:42:42.516Z,12.10
2023-04-18T01:45:11.080Z,10.73
2023-04-18T01:47:37.968Z,11.90
2023-04-18T01:50:05.802Z,13.48
2023-04-18T01:52:32.615Z,12.10
2023-04-18T01:54:59.482Z,12.23
2023-04-18T01:57:26.328Z,14.18
2023-04-18T01:59:54.521Z,11.27
2023-04-18T02:02:21.486Z,12.98
2023-04-18T02:04:48.378Z,11.88
2023-04-18T02:07:15.170Z,12.30
2023-04-18T02:09:42.054Z,12.65
2023-04-18T02:12:08.990Z,11.32
2023-04-18T02:14:36.575Z,14.27
2023-04-18T02:17:05.038Z,15.63
2023-04-18T02:19:31.810Z,13.50
2023-04-18T02:21:58.624Z,12.77
2023-04-18T02:24:25.331Z,13.18
2023-04-18T02:26:52.175Z,13.93
2023-04-18T02:29:18.919Z,11.50
2023-04-18T02:31:45.857Z,13.05
2023-04-18T02:34:14.320Z,12.48
2023-04-18T02:36:41.282Z,12.05
2023-04-18T02:39:08.063Z,13.50
2023-04-18T02:41:34.913Z,13.27
2023-04-18T02:44:01.655Z,13.48
2023-04-18T02:46:28.553Z,12.70
2023-04-18T02:48:55.372Z,16.42
2023-04-18T02:51:23.564Z,11.48
2023-04-18T02:53:50.304Z,13.27
2023-04-18T02:56:17.141Z,14.40
2023-04-18T02:58:43.947Z,15.15
2023-04-18T03:01:10.734Z,14.43
2023-04-18T03:03:37.522Z,13.70
2023-04-18T03:06:04.722Z,13.68
2023-04-18T03:08:32.901Z,15.55
2023-04-18T03:10:59.760Z,14.80
2023-04-18T03:13:26.602Z,16.55
2023-04-18T03:15:53.569Z,16.55
2023-04-18T03:18:20.374Z,14.30
2023-04-18T03:20:47.162Z,15.65
2023-04-18T03:23:13.999Z,15.90
2023-04-18T03:25:42.208Z,17.92
2023-04-18T03:28:08.989Z,16.67
2023-04-18T03:30:35.818Z,18.88
2023-04-18T03:33:02.716Z,18.50
2023-04-18T03:35:29.694Z,19.90
2023-04-18T03:37:56.485Z,18.83
2023-04-18T03:40:23.244Z,19.70
2023-04-18T03:42:51.369Z,18.33
2023-04-18T03:45:18.178Z,17.73
2023-04-18T03:47:44.960Z,18.40
2023-04-18T03:50:11.882Z,18.38
2023-04-18T03:52:38.624Z,17.17
2023-04-18T03:55:06.292Z,20.23
2023-04-18T03:57:33.093Z,19.52
2023-04-18T04:00:01.235Z,20.52
2023-04-18T04:02:28.218Z,19.50
2023-04-18T04:04:55.071Z,18.42
2023-04-18T04:07:21.946Z,19.80
2023-04-18T04:09:48.704Z,21.13
2023-04-18T04:12:15.781Z,21.67
2023-04-18T04:14:42.697Z,19.67
2023-04-18T04:17:10.938Z,18.83
2023-04-18T04:19:37.785Z,18.55
2023-04-18T04:22:04.608Z,21.80
2023-04-18T04:24:31.356Z,21.42
2023-04-18T04:26:58.315Z,21.42
2023-04-18T04:29:25.403Z,21.45
2023-04-18T04:31:52.275Z,20.52
2023-04-18T04:34:20.678Z,20.75
2023-04-18T04:36:47.600Z,21.33
2023-04-18T04:39:15.277Z,20.33
2023-04-18T04:41:42.244Z,22.13
2023-04-18T04:44:09.100Z,25.95
2023-04-18T04:46:35.984Z,21.25
2023-04-18T04:49:02.992Z,19.27
2023-04-18T04:51:31.252Z,19.33
2023-04-18T04:53:58.204Z,22.25
2023-04-18T04:56:25.002Z,20.27
2023-04-18T04:58:51.736Z,20.48
2023-04-18T05:01:18.495Z,20.85
2023-04-18T05:03:45.389Z,22.60
2023-04-18T05:06:12.633Z,19.92
2023-04-18T05:08:40.777Z,23.20
2023-04-18T05:11:07.610Z,22.80
2023-04-18T05:13:34.406Z,31.60
2023-04-18T05:16:01.607Z,21.95
2023-04-18T05:18:28.353Z,20.58
2023-04-18T05:20:55.085Z,20.50
2023-04-18T05:23:21.857Z,20.10
2023-04-18T05:25:50.033Z,20.45
2023-04-18T05:28:16.926Z,19.75
2023-04-18T05:30:45.090Z,18.52
2023-04-18T05:33:11.833Z,22.55
2023-04-18T05:35:38.643Z,19.58
2023-04-18T05:38:05.382Z,21.83
2023-04-18T05:40:32.150Z,20.15
2023-04-18T05:43:00.606Z,20.92
2023-04-18T05:45:27.399Z,20.27
2023-04-18T05:47:54.208Z,21.30
2023-04-18T05:50:21.065Z,18.77
2023-04-18T05:52:48.250Z,19.23
2023-04-18T05:55:15.091Z,17.95
2023-04-18T05:57:41.850Z,18.13
2023-04-18T06:00:11.606Z,22.63
2023-04-18T06:02:38.573Z,18.05
2023-04-18T06:05:06.462Z,18.15
2023-04-18T06:07:33.430Z,18.85
2023-04-18T06:10:00.236Z,17.92
2023-04-18T06:12:27.048Z,18.83
2023-04-18T06:14:53.800Z,19.13
2023-04-18T06:17:22.032Z,18.02
2023-04-18T06:19:48.821Z,19.50
2023-04-18T06:22:15.714Z,17.25
2023-04-18T06:24:42.461Z,20.10
2023-04-18T06:27:17.496Z,19.05
2023-04-18T06:29:51.060Z,19.80
2023-04-18T06:32:17.835Z,21.13
2023-04-18T06:34:45.942Z,19.17
2023-04-18T06:37:12.779Z,19.25
2023-04-18T06:39:39.598Z,17.02
2023-04-18T06:42:06.463Z,17.42
2023-04-18T06:44:33.200Z,17.70
2023-04-18T06:47:00.020Z,21.20
2023-04-18T06:49:26.871Z,20.40
2023-04-18T06:51:55.059Z,16.55
2023-04-18T06:54:21.833Z,16.17
2023-04-18T06:56:48.644Z,17.25
2023-04-18T06:59:15.486Z,16.83
2023-04-18T07:01:42.346Z,17.75
2023-04-18T07:04:09.669Z,16.60
2023-04-18T07:06:37.216Z,16.30
2023-04-18T07:09:05.407Z,14.63
2023-04-18T07:11:32.145Z,18.80
2023-04-18T07:13:59.035Z,15.75
2023-04-18T07:16:25.796Z,15.75
2023-04-18T07:18:52.631Z,23.77
2023-04-18T07:21:19.401Z,15.10
2023-04-18T07:23:46.360Z,14.82
2023-04-18T07:26:14.584Z,14.07
2023-04-18T07:28:41.358Z,16.52
2023-04-18T07:31:08.180Z,19.30
2023-04-18T07:33:35.083Z,15.52
2023-04-18T07:36:02.007Z,15.32
2023-04-18T07:38:28.870Z,16.15
2023-04-18T07:40:56.922Z,13.27
2023-04-18T07:43:25.593Z,13.57
2023-04-18T07:45:52.580Z,15.60
2023-04-18T07:48:20.517Z,15.68
2023-04-18T07:50:47.369Z,14.25
2023-04-18T07:53:14.140Z,14.23
2023-04-18T07:55:40.867Z,13.60
2023-04-18T07:58:07.647Z,16.63
2023-04-18T08:00:35.969Z,11.65
2023-04-18T08:03:02.944Z,12.95
2023-04-18T08:05:29.881Z,14.10
2023-04-18T08:07:56.724Z,13.35
2023-04-18T08:10:23.996Z,12.45
2023-04-18T08:12:50.898Z,17.70
2023-04-18T08:15:17.725Z,11.95
2023-04-18T08:17:45.798Z,12.57
2023-04-18T08:20:13.082Z,14.55
2023-04-18T08:22:53.817Z,13.20
2023-04-18T08:25:26.673Z,14.57
2023-04-18T08:27:53.444Z,13.10
2023-04-18T08:30:20.263Z,14.10
2023-04-18T08:32:48.468Z,12.50
2023-04-18T08:35:15.286Z,18.10
2023-04-18T08:37:42.254Z,14.88
2023-04-18T08:40:09.338Z,12.52
2023-04-18T08:42:36.548Z,13.10
2023-04-18T08:45:03.809Z,15.02
2023-04-18T08:47:30.657Z,12.35
2023-04-18T08:49:58.793Z,14.35
2023-04-18T08:52:26.445Z,15.68
2023-04-18T08:54:53.294Z,13.13
2023-04-18T08:57:20.078Z,13.10
2023-04-18T08:59:48.267Z,17.40
2023-04-18T09:02:16.649Z,15.65
2023-04-18T09:04:44.872Z,14.25
2023-04-18T09:07:14.736Z,14.52
2023-04-18T09:09:43.926Z,13.23
2023-04-18T09:12:12.300Z,13.88
2023-04-18T09:14:39.092Z,15.48
2023-04-18T09:17:05.984Z,14.32
2023-04-18T09:19:33.248Z,11.48
2023-04-18T09:22:01.423Z,12.82
2023-04-18T09:24:29.944Z,12.48
2023-04-18T09:26:57.552Z,13.38
2023-04-18T09:29:42.428Z,13.82
2023-04-18T09:32:09.331Z,12.57
2023-04-18T09:34:42.071Z,15.50
2023-04-18T09:37:10.212Z,12.43
2023-04-18T09:39:39.701Z,12.70
2023-04-18T09:42:06.708Z,12.80
2023-04-18T09:44:34.615Z,12.52
2023-04-18T09:47:01.648Z,12.75
2023-04-18T09:49:29.008Z,12.45
2023-04-18T09:51:56.485Z,12.80
2023-04-18T09:54:25.095Z,12.23
2023-04-18T09:56:53.406Z,11.73
2023-04-18T09:59:51.033Z,14.43
2023-04-18T10:02:21.955Z,17.35
2023-04-18T10:04:50.303Z,11.10
2023-04-18T10:07:17.724Z,12.05
2023-04-18T10:09:46.158Z,12.20
2023-04-18T10:12:15.938Z,11.45
2023-04-18T10:14:43.499Z,12.80
2023-04-18T10:17:10.568Z,13.07
2023-04-18T10:19:38.323Z,10.65
2023-04-18T10:22:05.063Z,12.75
2023-04-18T10:24:48.583Z,11.60
2023-04-18T10:27:17.341Z,12.07
2023-04-18T10:29:47.777Z,10.90
2023-04-18T10:32:14.744Z,10.98
2023-04-18T10:34:41.632Z,10.57
2023-04-18T10:37:08.672Z,12.32
2023-04-18T10:39:49.049Z,13.30
2023-04-18T10:42:17.174Z,11.05
2023-04-18T10:44:43.914Z,12.07
2023-04-18T10:47:31.659Z,12.50
2023-04-18T10:52:50.054Z,10.80
2023-04-18T10:55:20.601Z,13.43
2023-04-18T10:57:49.398Z,11.38
2023-04-18T11:00:18.533Z,10.88
2023-04-18T11:02:53.944Z,11.75
2023-04-18T11:05:23.326Z,11.38
2023-04-18T11:07:50.369Z,12.43
2023-04-18T11:10:18.632Z,12.07
2023-04-18T11:12:46.132Z,14.60
2023-04-18T11:15:16.227Z,12.52
2023-04-18T11:17:44.202Z,11.23
2023-04-18T11:20:13.022Z,12.10
2023-04-18T11:22:48.446Z,11.00
2023-04-18T11:25:16.418Z,16.02
2023-04-18T11:27:44.206Z,11.43
2023-04-18T11:30:12.452Z,11.65
2023-04-18T11:32:41.261Z,12.30
2023-04-18T11:35:10.124Z,11.75
2023-04-18T11:37:37.733Z,17.33
2023-04-18T11:40:05.397Z,13.57
2023-04-18T11:42:33.640Z,11.18
2023-04-18T11:45:00.509Z,8.48
2023-04-18T11:47:29.411Z,10.20
2023-04-18T11:49:59.446Z,8.20
2023-04-18T11:52:28.250Z,11.90
2023-04-18T11:54:56.153Z,10.00
2023-04-18T11:57:24.597Z,10.25
2023-04-18T11:59:52.874Z,11.77
2023-04-18T12:02:21.055Z,9.38
2023-04-18T12:04:55.771Z,8.10
2023-04-18T12:07:35.839Z,9.30
2023-04-18T12:10:04.181Z,8.68
2023-04-18T12:12:31.452Z,10.77
2023-04-18T12:15:00.299Z,9.45
2023-04-18T12:17:27.257Z,10.23
2023-04-18T12:19:54.218Z,8.77
2023-04-18T12:22:36.158Z,10.02
2023-04-18T12:25:25.017Z,7.72
2023-04-18T12:27:56.184Z,7.40
2023-04-18T12:30:25.319Z,11.10
2023-04-18T12:33:05.816Z,8.05
2023-04-18T12:35:33.048Z,8.43
2023-04-18T12:38:01.794Z,9.73
2023-04-18T12:43:40.436Z,8.57
2023-04-18T12:46:07.525Z,8.45
2023-04-18T12:48:34.291Z,7.70
2023-04-18T12:51:01.178Z,8.02
2023-04-18T12:53:27.998Z,8.30
2023-04-18T12:55:54.762Z,8.27
2023-04-18T12:58:21.528Z,8.05
2023-04-18T13:00:49.850Z,8.05
2023-04-18T13:03:16.887Z,9.10
2023-04-18T13:05:44.176Z,14.55
2023-04-18T13:08:17.263Z,10.55
2023-04-18T13:10:45.767Z,9.48
2023-04-18T13:13:12.793Z,10.48
2023-04-18T13:15:39.643Z,10.98
2023-04-18T13:18:08.055Z,9.35
2023-04-18T13:20:35.129Z,10.52
2023-04-18T13:23:02.951Z,12.00
2023-04-18T13:25:29.896Z,9.32
2023-04-18T13:27:56.754Z,9.15
2023-04-18T13:30:23.624Z,9.30
2023-04-18T13:32:50.377Z,9.07
2023-04-18T13:35:19.008Z,11.93
2023-04-18T13:37:46.101Z,8.75
2023-04-18T13:40:13.241Z,7.30
2023-04-18T13:42:40.146Z,7.25
2023-04-18T13:45:07.789Z,8.65
2023-04-18T13:47:34.907Z,7.50
2023-04-18T13:50:01.915Z,6.30
2023-04-18T13:52:30.466Z,7.68
2023-04-18T13:54:57.264Z,9.68
2023-04-18T13:57:24.098Z,8.07
2023-04-18T13:59:51.004Z,9.18
2023-04-18T14:02:18.147Z,11.32
2023-04-18T14:04:45.198Z,7.25
2023-04-18T14:07:12.159Z,8.43
2023-04-18T14:09:40.340Z,7.53
2023-04-18T14:12:07.558Z,9.13
2023-04-18T14:14:34.601Z,11.23
2023-04-18T14:17:01.427Z,8.30
2023-04-18T14:19:28.196Z,7.88
2023-04-18T14:21:55.052Z,7.05
2023-04-18T14:24:21.903Z,7.40
2023-04-18T14:26:50.180Z,8.70
2023-04-18T14:29:17.106Z,7.20
2023-04-18T14:31:44.116Z,9.02
2023-04-18T14:34:10.921Z,8.77
2023-04-18T14:36:37.783Z,10.18
2023-04-18T14:39:04.920Z,9.00
2023-04-18T14:41:31.996Z,8.70
2023-04-18T14:44:01.114Z,7.50
2023-04-18T14:46:28.031Z,10.63
2023-04-18T14:48:54.940Z,8.27
2023-04-18T14:51:23.464Z,8.60
2023-04-18T14:53:50.401Z,12.15
2023-04-18T14:56:17.533Z,9.07
2023-04-18T14:58:45.218Z,8.23
2023-04-18T15:01:13.684Z,9.15
2023-04-18T15:03:40.622Z,9.10
2023-04-18T15:06:08.098Z,8.35
2023-04-18T15:08:34.913Z,7.97
2023-04-18T15:11:05.470Z,9.10
2023-04-18T15:13:32.944Z,8.95
2023-04-18T15:15:59.756Z,8.57
2023-04-18T15:18:28.226Z,9.52
2023-04-18T15:20:55.067Z,7.78
2023-04-18T15:23:22.188Z,9.80
2023-04-18T15:25:49.069Z,10.32
2023-04-18T15:28:16.156Z,9.45
2023-04-18T15:30:42.954Z,9.10
2023-04-18T15:33:10.609Z,8.85
2023-04-18T15:35:39.129Z,8.93
2023-04-18T15:38:06.212Z,9.57
2023-04-18T15:40:33.022Z,8.10
2023-04-18T15:42:59.888Z,8.43
2023-04-18T15:45:26.797Z,9.23
2023-04-18T15:47:53.682Z,11.15
2023-04-18T15:50:20.655Z,8.73
2023-04-18T15:52:48.898Z,8.05
2023-04-18T15:55:16.042Z,8.63
2023-04-18T15:57:42.804Z,10.57
2023-04-18T16:00:11.444Z,9.18
2023-04-18T16:02:38.283Z,12.45
2023-04-18T16:05:05.882Z,9.00
2023-04-18T16:07:32.732Z,8.93
2023-04-18T16:10:00.917Z,7.32
2023-04-18T16:12:27.725Z,9.07
2023-04-18T16:14:54.566Z,13.80
2023-04-18T16:17:21.362Z,8.43
2023-04-18T16:19:48.337Z,12.27
2023-04-18T16:22:15.126Z,11.10
2023-04-18T16:24:42.276Z,7.50
2023-04-18T16:27:10.727Z,9.70
2023-04-18T16:29:37.677Z,9.45
2023-04-18T16:32:04.708Z,10.40
2023-04-18T16:34:31.516Z,9.05
2023-04-18T16:36:58.326Z,9.05
2023-04-18T16:39:25.122Z,10.45
2023-04-18T16:41:52.032Z,8.30
2023-04-18T16:44:20.188Z,8.07
2023-04-18T16:46:47.008Z,11.05
2023-04-18T16:49:13.944Z,10.80
2023-04-18T16:54:08.684Z,8.38
2023-04-18T16:56:35.524Z,8.10
2023-04-18T16:59:02.241Z,9.38
2023-04-18T17:01:30.403Z,9.88
2023-04-18T17:03:58.338Z,7.38
2023-04-18T17:06:25.252Z,8.43
2023-04-18T17:08:51.976Z,7.00
2023-04-18T17:11:18.926Z,7.15
2023-04-18T17:13:45.674Z,6.32
2023-04-18T17:16:12.451Z,7.65
2023-04-18T17:18:40.624Z,7.43
2023-04-18T17:21:07.446Z,6.63
2023-04-18T17:23:34.229Z,7.68
2023-04-18T17:26:00.985Z,7.55
2023-04-18T17:28:27.845Z,7.95
2023-04-18T17:30:54.568Z,6.47
2023-04-18T17:33:21.302Z,7.05
2023-04-18T17:35:49.378Z,8.55
2023-04-18T17:38:16.169Z,8.23
2023-04-18T17:40:43.023Z,10.13
2023-04-18T17:43:11.013Z,7.57
2023-04-18T17:45:38.141Z,8.10
2023-04-18T17:48:05.504Z,9.85
2023-04-18T17:50:32.325Z,10.57
2023-04-18T17:53:00.413Z,8.77
2023-04-18T17:55:27.263Z,9.02
2023-04-18T17:57:53.990Z,11.88
2023-04-18T18:00:21.046Z,10.00
2023-04-18T18:02:47.916Z,9.32
2023-04-18T18:05:14.806Z,10.10
2023-04-18T18:07:41.537Z,11.40
2023-04-18T18:10:10.704Z,12.05
2023-04-18T18:12:37.472Z,10.55
2023-04-18T18:15:05.448Z,12.52
2023-04-18T18:17:32.241Z,9.43
2023-04-18T18:19:59.049Z,12.57
2023-04-18T18:22:25.805Z,10.27
2023-04-18T18:24:52.655Z,12.18
2023-04-18T18:27:20.756Z,12.05
2023-04-18T18:29:47.482Z,10.18
2023-04-18T18:32:14.234Z,11.70
2023-04-18T18:34:40.936Z,11.68
2023-04-18T18:37:07.735Z,13.77
2023-04-18T18:39:34.550Z,10.27
2023-04-18T18:42:01.286Z,10.77
2023-04-18T18:44:29.403Z,10.13
2023-04-18T18:46:56.209Z,10.65
2023-04-18T18:49:23.024Z,10.07
2023-04-18T18:51:49.873Z,12.18
2023-04-18T18:54:16.627Z,11.65
2023-04-18T18:56:43.545Z,12.02
2023-04-18T18:59:10.526Z,12.82
2023-04-18T19:01:38.757Z,8.68
2023-04-18T19:04:05.763Z,9.82
2023-04-18T19:06:32.755Z,10.23
2023-04-18T19:08:59.520Z,10.60
2023-04-18T19:11:26.332Z,10.55
2023-04-18T19:13:53.243Z,12.00
2023-04-18T19:16:20.325Z,9.77
2023-04-18T19:18:48.526Z,10.73
2023-04-18T19:21:15.623Z,10.70
2023-04-18T19:23:42.427Z,9.85
2023-04-18T19:26:09.520Z,11.57
2023-04-18T19:28:36.297Z,13.13
2023-04-18T19:31:03.079Z,10.60
2023-04-18T19:33:29.860Z,9.55
2023-04-18T19:35:58.607Z,10.05
2023-04-18T19:38:25.578Z,10.45
2023-04-18T19:40:52.338Z,11.13
2023-04-18T19:43:19.089Z,10.10
2023-04-18T19:45:45.880Z,9.57
2023-04-18T19:48:12.711Z,10.90
2023-04-18T19:50:39.679Z,11.50
2023-04-18T19:53:08.043Z,12.15
2023-04-18T19:55:34.787Z,14.60
2023-04-18T19:58:01.554Z,14.40
2023-04-18T20:00:28.437Z,11.88
2023-04-18T20:02:55.474Z,11.30
2023-04-18T20:05:22.762Z,13.23
2023-04-18T20:07:49.660Z,13.70
2023-04-18T20:10:20.086Z,11.95
2023-04-18T20:12:49.952Z,10.63
2023-04-18T20:15:17.224Z,11.23
2023-04-18T20:17:44.006Z,13.13
2023-04-18T20:20:11.750Z,13.57
2023-04-18T20:22:38.486Z,12.52
2023-04-18T20:25:05.999Z,15.60
2023-04-18T20:27:34.106Z,13.18
2023-04-18T20:30:00.894Z,11.95
2023-04-18T20:32:27.758Z,12.30
2023-04-18T20:34:54.575Z,12.63
2023-04-18T20:37:21.415Z,20.23
2023-04-18T20:39:48.184Z,22.70
2023-04-18T20:42:14.939Z,12.50
2023-04-18T20:44:43.164Z,12.30
2023-04-18T20:47:10.088Z,12.60
2023-04-18T20:49:36.886Z,14.07
2023-04-18T20:52:07.561Z,12.18
2023-04-18T20:54:34.416Z,11.02
2023-04-18T20:57:01.205Z,10.07
2023-04-18T20:59:27.977Z,17.67
2023-04-18T21:01:56.269Z,13.20
2023-04-18T21:04:23.446Z,12.82
2023-04-18T21:06:50.320Z,11.48
2023-04-18T21:09:17.228Z,12.25
2023-04-18T21:11:44.072Z,11.45
2023-04-18T21:14:10.807Z,12.45
2023-04-18T21:16:37.746Z,13.13
2023-04-18T21:19:06.227Z,11.32
2023-04-18T21:21:33.001Z,11.10
2023-04-18T21:23:59.890Z,14.80
2023-04-18T21:26:26.760Z,12.23
2023-04-18T21:28:55.419Z,12.57
2023-04-18T21:31:22.611Z,12.43
2023-04-18T21:33:52.155Z,11.57
2023-04-18T21:36:20.422Z,11.70
2023-04-18T21:38:47.266Z,11.10
2023-04-18T21:41:15.224Z,14.43
2023-04-18T21:43:41.976Z,10.27
2023-04-18T21:46:08.781Z,11.90
2023-04-18T21:48:35.633Z,11.70
2023-04-18T21:51:02.369Z,10.80
2023-04-18T21:53:30.457Z,10.88
2023-04-18T21:55:57.244Z,10.68
2023-04-18T21:58:23.963Z,10.20
2023-04-18T22:00:50.770Z,11.05
2023-04-18T22:03:17.688Z,12.02
2023-04-18T22:05:44.627Z,11.30
2023-04-18T22:08:11.408Z,11.45
2023-04-18T22:10:39.516Z,10.15
2023-04-18T22:13:06.296Z,12.20
2023-04-18T22:15:33.082Z,12.02
2023-04-18T22:17:59.901Z,10.50
2023-04-18T22:20:26.882Z,12.15
2023-04-18T22:22:54.086Z,10.40
2023-04-18T22:25:20.889Z,10.13
2023-04-18T22:27:48.965Z,9.88
2023-04-18T22:30:15.814Z,10.80
2023-04-18T22:32:42.632Z,11.02
2023-04-18T22:35:09.897Z,11.48
2023-04-18T22:37:36.684Z,10.32
2023-04-18T22:40:04.023Z,9.80
2023-04-18T22:42:31.636Z,9.90
2023-04-18T22:45:00.792Z,14.65
2023-04-18T22:47:27.634Z,10.85
2023-04-18T22:49:54.450Z,10.00
2023-04-18T22:52:21.160Z,9.35
2023-04-18T22:54:47.873Z,9.93
2023-04-18T22:57:14.568Z,9.50
2023-04-18T22:59:41.316Z,11.02
2023-04-18T23:02:10.061Z,9.30
2023-04-18T23:04:37.131Z,8.93
2023-04-18T23:07:03.947Z,9.50
2023-04-18T23:09:31.059Z,9.10
2023-04-18T23:11:57.806Z,11.82
2023-04-18T23:14:24.610Z,10.63
2023-04-18T23:16:51.364Z,9.43
2023-04-18T23:19:19.576Z,9.52
2023-04-18T23:21:47.727Z,11.00
2023-04-18T23:24:16.422Z,9.50
2023-04-18T23:26:43.247Z,11.45
2023-04-18T23:29:10.003Z,11.27
2023-04-18T23:31:36.773Z,9.50
2023-04-18T23:34:03.544Z,12.00
2023-04-18T23:36:31.717Z,11.48
2023-04-18T23:38:58.445Z,10.98
2023-04-18T23:41:25.165Z,10.05
2023-04-18T23:43:51.887Z,11.05
2023-04-18T23:46:18.813Z,9.65
2023-04-18T23:48:45.593Z,10.38
2023-04-18T23:51:12.454Z,10.30
2023-04-18T23:53:40.579Z,9.77
2023-04-18T23:56:07.452Z,12.05
2023-04-18T23:58:34.214Z,12.10
